Time,TemperatureF,DewpointF,PressureIn,WindDirection,WindDirectionDegrees,WindSpeedMPH,WindSpeedGustMPH,Humidity,HourlyPrecipIn,Conditions,Clouds,dailyrainin,SoftwareType,DateUTC
2013-03-02 00:01:00,30.0,25.0,-100.00,ENE,69,6.0,8.0,78,-99.99,,,-99.99,,2013-03-02 07:01:00,
2013-03-02 00:11:00,27.0,22.0,-100.00,ENE,64,4.0,6.0,80,-99.99,,,-99.99,,2013-03-02 07:11:00,
2013-03-02 00:21:00,26.0,21.0,-100.00,NE,50,4.0,5.0,83,-99.99,,,-99.99,,2013-03-02 07:21:00,
2013-03-02 00:32:00,26.0,22.0,-100.00,NE,41,3.0,5.0,83,-99.99,,,-99.99,,2013-03-02 07:32:00,
2013-03-02 00:41:00,25.0,21.0,-100.00,ENE,58,3.0,5.0,86,-99.99,,,-99.99,,2013-03-02 07:41:00,
2013-03-02 00:51:00,26.0,22.0,-100.00,ENE,70,4.0,5.0,86,-99.99,,,-99.99,,2013-03-02 07:51:00,
2013-03-02 01:01:00,29.0,24.0,-100.00,East,79,10.0,10.0,80,-99.99,,,-99.99,,2013-03-02 08:01:00,
2013-03-02 01:11:00,29.0,23.0,-100.00,ENE,60,11.0,11.0,80,-99.99,,,-99.99,,2013-03-02 08:11:00,
2013-03-02 01:21:00,28.0,23.0,-100.00,ENE,57,12.0,13.0,81,-99.99,,,-99.99,,2013-03-02 08:21:00,
2013-03-02 01:31:00,27.0,22.0,-100.00,ENE,62,9.0,12.0,81,-99.99,,,-99.99,,2013-03-02 08:31:00,
2013-03-02 01:42:00,28.0,23.0,-100.00,NE,42,10.0,11.0,79,-99.99,,,-99.99,,2013-03-02 08:42:00,
2013-03-02 01:52:00,28.0,23.0,-100.00,NE,43,9.0,10.0,79,-99.99,,,-99.99,,2013-03-02 08:52:00,
2013-03-02 02:01:00,28.0,23.0,-100.00,ENE,59,7.0,9.0,79,-99.99,,,-99.99,,2013-03-02 09:01:00,
2013-03-02 02:11:00,27.0,22.0,-100.00,ENE,76,12.0,12.0,79,-99.99,,,-99.99,,2013-03-02 09:11:00,
2013-03-02 02:21:00,28.0,22.0,-100.00,ENE,73,13.0,13.0,78,-99.99,,,-99.99,,2013-03-02 09:21:00,
2013-03-02 02:31:00,27.0,21.0,-100.00,ENE,73,12.0,12.0,77,-99.99,,,-99.99,,2013-03-02 09:31:00,
2013-03-02 02:42:00,27.0,21.0,-100.00,ENE,73,12.0,12.0,77,-99.99,,,-99.99,,2013-03-02 09:42:00,
2013-03-02 02:51:00,26.0,20.0,-100.00,ENE,62,10.0,13.0,78,-99.99,,,-99.99,,2013-03-02 09:51:00,
2013-03-02 03:01:00,25.0,20.0,-100.00,ENE,58,9.0,12.0,79,-99.99,,,-99.99,,2013-03-02 10:01:00,
2013-03-02 03:14:00,25.0,20.0,-100.00,ENE,58,9.0,12.0,79,-99.99,,,-99.99,,2013-03-02 10:14:00,
2013-03-02 03:21:00,25.0,20.0,-100.00,NE,47,8.0,12.0,79,-99.99,,,-99.99,,2013-03-02 10:21:00,
2013-03-02 03:31:00,26.0,20.0,-100.00,NNE,27,4.0,10.0,79,-99.99,,,-99.99,,2013-03-02 10:31:00,
2013-03-02 03:41:00,25.0,19.0,-100.00,ENE,62,7.0,9.0,78,-99.99,,,-99.99,,2013-03-02 10:41:00,
2013-03-02 03:51:00,25.0,20.0,-100.00,NE,42,6.0,10.0,82,-99.99,,,-99.99,,2013-03-02 10:51:00,
2013-03-02 04:01:00,25.0,20.0,-100.00,NNE,30,6.0,8.0,78,-99.99,,,-99.99,,2013-03-02 11:01:00,
2013-03-02 04:11:00,25.0,20.0,-100.00,NNE,30,6.0,8.0,78,-99.99,,,-99.99,,2013-03-02 11:11:00,
2013-03-02 04:21:00,26.0,20.0,-100.00,East,81,9.0,9.0,77,-99.99,,,-99.99,,2013-03-02 11:21:00,
2013-03-02 04:31:00,25.0,19.0,-100.00,ENE,73,9.0,9.0,77,-99.99,,,-99.99,,2013-03-02 11:31:00,
2013-03-02 04:41:00,25.0,19.0,-100.00,ENE,73,9.0,9.0,77,-99.99,,,-99.99,,2013-03-02 11:41:00,
2013-03-02 04:52:00,25.0,19.0,-100.00,East,81,9.0,10.0,77,-99.99,,,-99.99,,2013-03-02 11:52:00,
2013-03-02 05:02:00,25.0,19.0,-100.00,East,81,9.0,10.0,77,-99.99,,,-99.99,,2013-03-02 12:02:00,
2013-03-02 05:11:00,25.0,19.0,-100.00,East,81,9.0,10.0,77,-99.99,,,-99.99,,2013-03-02 12:11:00,
2013-03-02 05:21:00,23.0,18.0,-100.00,NNE,33,4.0,7.0,78,-99.99,,,-99.99,,2013-03-02 12:21:00,
2013-03-02 05:32:00,25.0,20.0,-100.00,ENE,58,6.0,7.0,80,-99.99,,,-99.99,,2013-03-02 12:32:00,
2013-03-02 05:43:00,25.0,20.0,-100.00,NE,50,6.0,7.0,78,-99.99,,,-99.99,,2013-03-02 12:43:00,
2013-03-02 05:53:00,26.0,20.0,-100.00,East,79,8.0,8.0,78,-99.99,,,-99.99,,2013-03-02 12:53:00,
2013-03-02 06:01:00,26.0,20.0,-100.00,East,79,8.0,8.0,78,-99.99,,,-99.99,,2013-03-02 13:01:00,
2013-03-02 06:11:00,26.0,20.0,-100.00,East,79,9.0,9.0,76,-99.99,,,-99.99,,2013-03-02 13:11:00,
2013-03-02 06:21:00,26.0,19.0,-100.00,ENE,74,11.0,11.0,74,-99.99,,,-99.99,,2013-03-02 13:21:00,
2013-03-02 06:31:00,25.0,18.0,-100.00,ENE,63,11.0,13.0,75,-99.99,,,-99.99,,2013-03-02 13:31:00,
2013-03-02 06:41:00,25.0,18.0,-100.00,ENE,62,9.0,11.0,75,-99.99,,,-99.99,,2013-03-02 13:41:00,
2013-03-02 06:52:00,25.0,18.0,-100.00,ENE,62,9.0,11.0,75,-99.99,,,-99.99,,2013-03-02 13:52:00,
2013-03-02 07:01:00,26.0,19.0,-100.00,ENE,71,9.0,11.0,74,-99.99,,,-99.99,,2013-03-02 14:01:00,
2013-03-02 07:11:00,26.0,19.0,-100.00,East,93,7.0,11.0,73,-99.99,,,-99.99,,2013-03-02 14:11:00,
2013-03-02 07:21:00,26.0,19.0,-100.00,East,93,7.0,11.0,73,-99.99,,,-99.99,,2013-03-02 14:21:00,
2013-03-02 07:31:00,25.0,19.0,-100.00,ESE,116,4.0,7.0,75,-99.99,,,-99.99,,2013-03-02 14:31:00,
2013-03-02 07:42:00,24.0,18.0,-100.00,ENE,62,1.0,4.0,75,-99.99,,,-99.99,,2013-03-02 14:42:00,
2013-03-02 07:52:00,25.0,19.0,-100.00,East,98,2.0,3.0,77,-99.99,,,-99.99,,2013-03-02 14:52:00,
2013-03-02 08:01:00,25.0,19.0,-100.00,East,98,2.0,3.0,77,-99.99,,,-99.99,,2013-03-02 15:01:00,
2013-03-02 08:11:00,26.0,20.0,-100.00,East,85,4.0,4.0,78,-99.99,,,-99.99,,2013-03-02 15:11:00,
2013-03-02 08:21:00,29.0,22.0,-100.00,ESE,108,6.0,6.0,74,-99.99,,,-99.99,,2013-03-02 15:21:00,
2013-03-02 08:31:00,29.0,22.0,-100.00,ESE,108,6.0,6.0,74,-99.99,,,-99.99,,2013-03-02 15:31:00,
2013-03-02 08:41:00,30.0,23.0,-100.00,ESE,123,5.0,6.0,74,-99.99,,,-99.99,,2013-03-02 15:41:00,
2013-03-02 08:51:00,31.0,23.0,-100.00,SSE,159,2.0,4.0,73,-99.99,,,-99.99,,2013-03-02 15:51:00,
2013-03-02 09:01:00,31.0,24.0,-100.00,ESE,111,5.0,6.0,72,-99.99,,,-99.99,,2013-03-02 16:01:00,
2013-03-02 09:11:00,31.0,24.0,-100.00,ESE,111,5.0,6.0,72,-99.99,,,-99.99,,2013-03-02 16:11:00,
2013-03-02 09:21:00,32.0,24.0,-100.00,ESE,106,5.0,6.0,72,-99.99,,,-99.99,,2013-03-02 16:21:00,
2013-03-02 09:31:00,32.0,24.0,-100.00,ESE,108,4.0,7.0,71,-99.99,,,-99.99,,2013-03-02 16:31:00,
2013-03-02 09:41:00,34.0,24.0,-100.00,SSW,212,1.0,6.0,65,-99.99,,,-99.99,,2013-03-02 16:41:00,
2013-03-02 09:51:00,35.0,25.0,-100.00,SSW,204,4.0,5.0,65,-99.99,,,-99.99,,2013-03-02 16:51:00,
2013-03-02 10:01:00,34.0,24.0,-100.00,SSW,212,4.0,5.0,65,-99.99,,,-99.99,,2013-03-02 17:01:00,
2013-03-02 10:11:00,34.0,23.0,-100.00,WSW,256,4.0,6.0,63,-99.99,,,-99.99,,2013-03-02 17:11:00,
2013-03-02 10:21:00,34.0,23.0,-100.00,WSW,256,4.0,6.0,63,-99.99,,,-99.99,,2013-03-02 17:21:00,
2013-03-02 10:31:00,36.0,25.0,-100.00,SW,217,3.0,5.0,63,-99.99,,,-99.99,,2013-03-02 17:31:00,
2013-03-02 10:41:00,37.0,25.0,-100.00,SW,216,5.0,7.0,61,-99.99,,,-99.99,,2013-03-02 17:41:00,
2013-03-02 10:52:00,37.0,25.0,-100.00,SW,217,4.0,5.0,61,-99.99,,,-99.99,,2013-03-02 17:52:00,
2013-03-02 11:01:00,38.0,25.0,-100.00,West,274,4.0,6.0,58,-99.99,,,-99.99,,2013-03-02 18:01:00,
2013-03-02 11:11:00,38.0,25.0,-100.00,West,274,4.0,6.0,58,-99.99,,,-99.99,,2013-03-02 18:11:00,
2013-03-02 11:21:00,39.0,25.0,-100.00,SW,223,5.0,6.0,57,-99.99,,,-99.99,,2013-03-02 18:21:00,
2013-03-02 11:31:00,39.0,26.0,-100.00,WSW,243,4.0,7.0,58,-99.99,,,-99.99,,2013-03-02 18:31:00,
2013-03-02 11:41:00,39.0,25.0,-100.00,WSW,249,4.0,6.0,58,-99.99,,,-99.99,,2013-03-02 18:41:00,
2013-03-02 11:51:00,40.0,26.0,-100.00,SW,227,5.0,7.0,57,-99.99,,,-99.99,,2013-03-02 18:51:00,
2013-03-02 12:01:00,38.0,25.0,-100.00,WSW,249,5.0,7.0,58,-99.99,,,-99.99,,2013-03-02 19:01:00,
2013-03-02 12:11:00,38.0,25.0,-100.00,WSW,249,5.0,7.0,58,-99.99,,,-99.99,,2013-03-02 19:11:00,
2013-03-02 12:21:00,38.0,25.0,-100.00,WSW,251,3.0,7.0,58,-99.99,,,-99.99,,2013-03-02 19:21:00,
2013-03-02 12:31:00,41.0,25.0,-100.00,SW,231,0.0,5.0,53,-99.99,,,-99.99,,2013-03-02 19:31:00,
2013-03-02 12:42:00,42.0,25.0,-100.00,West,272,3.0,7.0,50,-99.99,,,-99.99,,2013-03-02 19:42:00,
2013-03-02 12:52:00,42.0,24.0,-100.00,NW,304,2.0,6.0,47,-99.99,,,-99.99,,2013-03-02 19:52:00,
2013-03-02 13:01:00,42.0,24.0,-100.00,NW,304,2.0,6.0,47,-99.99,,,-99.99,,2013-03-02 20:01:00,
2013-03-02 13:11:00,43.0,21.0,-100.00,WSW,249,2.0,6.0,41,-99.99,,,-99.99,,2013-03-02 20:11:00,
2013-03-02 13:21:00,43.0,21.0,-100.00,WNW,288,5.0,6.0,40,-99.99,,,-99.99,,2013-03-02 20:21:00,
2013-03-02 13:31:00,44.0,21.0,-100.00,WSW,254,7.0,10.0,40,-99.99,,,-99.99,,2013-03-02 20:31:00,
2013-03-02 13:41:00,44.0,21.0,-100.00,WSW,254,7.0,10.0,40,-99.99,,,-99.99,,2013-03-02 20:41:00,
2013-03-02 13:52:00,46.0,19.0,-100.00,SW,232,9.0,11.0,33,-99.99,,,-99.99,,2013-03-02 20:52:00,
2013-03-02 14:02:00,46.0,19.0,-100.00,SW,232,9.0,11.0,33,-99.99,,,-99.99,,2013-03-02 21:02:00,
2013-03-02 14:11:00,48.0,20.0,-100.00,SSW,205,5.0,7.0,32,-99.99,,,-99.99,,2013-03-02 21:11:00,
2013-03-02 14:21:00,49.0,19.0,-100.00,SSW,207,8.0,12.0,29,-99.99,,,-99.99,,2013-03-02 21:21:00,
2013-03-02 14:31:00,49.0,19.0,-100.00,South,191,8.0,12.0,29,-99.99,,,-99.99,,2013-03-02 21:31:00,
2013-03-02 14:41:00,48.0,20.0,-100.00,SSW,196,8.0,12.0,31,-99.99,,,-99.99,,2013-03-02 21:41:00,
2013-03-02 14:52:00,50.0,15.0,-100.00,SSW,192,9.0,11.0,24,-99.99,,,-99.99,,2013-03-02 21:52:00,
2013-03-02 15:01:00,49.0,18.0,-100.00,SSW,195,6.0,11.0,27,-99.99,,,-99.99,,2013-03-02 22:01:00,
2013-03-02 15:11:00,50.0,16.0,-100.00,SSW,202,8.0,10.0,26,-99.99,,,-99.99,,2013-03-02 22:11:00,
2013-03-02 15:21:00,50.0,16.0,-100.00,South,182,5.0,10.0,25,-99.99,,,-99.99,,2013-03-02 22:21:00,
2013-03-02 15:31:00,50.0,16.0,-100.00,South,182,5.0,10.0,25,-99.99,,,-99.99,,2013-03-02 22:31:00,
2013-03-02 15:42:00,51.0,16.0,-100.00,SSW,203,7.0,12.0,24,-99.99,,,-99.99,,2013-03-02 22:42:00,
2013-03-02 15:51:00,51.0,18.0,-100.00,South,181,7.0,11.0,27,-99.99,,,-99.99,,2013-03-02 22:51:00,
2013-03-02 16:01:00,51.0,17.0,-100.00,SSW,194,10.0,11.0,25,-99.99,,,-99.99,,2013-03-02 23:01:00,
2013-03-02 16:11:00,51.0,18.0,-100.00,SW,218,7.0,11.0,27,-99.99,,,-99.99,,2013-03-02 23:11:00,
2013-03-02 16:21:00,51.0,19.0,-100.00,WSW,250,1.0,7.0,27,-99.99,,,-99.99,,2013-03-02 23:21:00,
2013-03-02 16:31:00,52.0,19.0,-100.00,South,187,5.0,6.0,27,-99.99,,,-99.99,,2013-03-02 23:31:00,
2013-03-02 16:41:00,52.0,19.0,-100.00,South,187,5.0,6.0,27,-99.99,,,-99.99,,2013-03-02 23:41:00,
2013-03-02 16:52:00,49.0,16.0,-100.00,SSW,210,5.0,8.0,26,-99.99,,,-99.99,,2013-03-02 23:52:00,
2013-03-02 17:02:00,50.0,16.0,-100.00,SSW,198,4.0,7.0,25,-99.99,,,-99.99,,2013-03-03 00:02:00,
2013-03-02 17:11:00,50.0,17.0,-100.00,South,188,2.0,5.0,26,-99.99,,,-99.99,,2013-03-03 00:11:00,
2013-03-02 17:22:00,51.0,16.0,-100.00,SW,229,1.0,2.0,24,-99.99,,,-99.99,,2013-03-03 00:22:00,
2013-03-02 17:31:00,49.0,17.0,-100.00,SSW,212,3.0,4.0,27,-99.99,,,-99.99,,2013-03-03 00:31:00,
2013-03-02 17:42:00,48.0,16.0,-100.00,SSW,208,5.0,6.0,27,-99.99,,,-99.99,,2013-03-03 00:42:00,
2013-03-02 17:52:00,48.0,16.0,-100.00,SSW,208,5.0,6.0,27,-99.99,,,-99.99,,2013-03-03 00:52:00,
2013-03-02 18:01:00,47.0,16.0,-100.00,South,184,3.0,6.0,28,-99.99,,,-99.99,,2013-03-03 01:01:00,
2013-03-02 18:11:00,47.0,15.0,-100.00,SSE,160,9.0,10.0,28,-99.99,,,-99.99,,2013-03-03 01:11:00,
2013-03-02 18:21:00,47.0,15.0,-100.00,SSE,160,9.0,10.0,28,-99.99,,,-99.99,,2013-03-03 01:21:00,
2013-03-02 18:31:00,46.0,16.0,-100.00,South,171,9.0,11.0,29,-99.99,,,-99.99,,2013-03-03 01:31:00,
2013-03-02 18:41:00,45.0,15.0,-100.00,South,181,4.0,8.0,29,-99.99,,,-99.99,,2013-03-03 01:41:00,
2013-03-02 18:51:00,45.0,14.0,-100.00,South,177,4.0,6.0,28,-99.99,,,-99.99,,2013-03-03 01:51:00,
2013-03-02 19:01:00,45.0,13.0,-100.00,South,180,8.0,9.0,27,-99.99,,,-99.99,,2013-03-03 02:01:00,
2013-03-02 19:11:00,45.0,12.0,-100.00,South,188,5.0,8.0,26,-99.99,,,-99.99,,2013-03-03 02:11:00,
2013-03-02 19:21:00,45.0,12.0,-100.00,South,188,5.0,8.0,26,-99.99,,,-99.99,,2013-03-03 02:21:00,
2013-03-02 19:31:00,45.0,11.0,-100.00,South,191,9.0,11.0,24,-99.99,,,-99.99,,2013-03-03 02:31:00,
2013-03-02 19:41:00,44.0,12.0,-100.00,South,181,12.0,14.0,27,-99.99,,,-99.99,,2013-03-03 02:41:00,
2013-03-02 19:52:00,44.0,12.0,-100.00,South,181,12.0,14.0,27,-99.99,,,-99.99,,2013-03-03 02:52:00,
2013-03-02 20:01:00,43.0,13.0,-100.00,South,185,12.0,15.0,27,-99.99,,,-99.99,,2013-03-03 03:01:00,
2013-03-02 20:11:00,43.0,13.0,-100.00,SSW,194,8.0,11.0,28,-99.99,,,-99.99,,2013-03-03 03:11:00,
2013-03-02 20:21:00,40.0,15.0,-100.00,SSE,166,2.0,6.0,34,-99.99,,,-99.99,,2013-03-03 03:21:00,
2013-03-02 20:31:00,41.0,15.0,-100.00,South,184,1.0,12.0,33,-99.99,,,-99.99,,2013-03-03 03:31:00,
2013-03-02 20:41:00,41.0,15.0,-100.00,South,184,1.0,12.0,33,-99.99,,,-99.99,,2013-03-03 03:41:00,
2013-03-02 20:51:00,40.0,14.0,-100.00,SW,228,1.0,3.0,33,-99.99,,,-99.99,,2013-03-03 03:51:00,
2013-03-02 21:01:00,41.0,13.0,-100.00,SSE,168,8.0,9.0,31,-99.99,,,-99.99,,2013-03-03 04:01:00,
2013-03-02 21:11:00,42.0,13.0,-100.00,South,180,12.0,15.0,29,-99.99,,,-99.99,,2013-03-03 04:11:00,
2013-03-02 21:21:00,42.0,13.0,-100.00,South,180,12.0,15.0,29,-99.99,,,-99.99,,2013-03-03 04:21:00,
2013-03-02 21:31:00,42.0,13.0,-100.00,South,190,6.0,15.0,30,-99.99,,,-99.99,,2013-03-03 04:31:00,
2013-03-02 21:41:00,41.0,14.0,-100.00,SW,223,4.0,9.0,32,-99.99,,,-99.99,,2013-03-03 04:41:00,
2013-03-02 21:51:00,40.0,12.0,-100.00,SSW,202,4.0,6.0,31,-99.99,,,-99.99,,2013-03-03 04:51:00,
2013-03-02 22:01:00,42.0,12.0,-100.00,South,187,8.0,12.0,29,-99.99,,,-99.99,,2013-03-03 05:01:00,
2013-03-02 22:11:00,42.0,13.0,-100.00,South,175,10.0,10.0,29,-99.99,,,-99.99,,2013-03-03 05:11:00,
2013-03-02 22:22:00,41.0,13.0,-100.00,SSE,151,9.0,13.0,31,-99.99,,,-99.99,,2013-03-03 05:22:00,
2013-03-02 22:32:00,41.0,13.0,-100.00,SSE,161,10.0,13.0,31,-99.99,,,-99.99,,2013-03-03 05:32:00,
2013-03-02 22:42:00,42.0,13.0,-100.00,South,174,11.0,14.0,30,-99.99,,,-99.99,,2013-03-03 05:42:00,
2013-03-02 22:52:00,42.0,13.0,-100.00,South,174,11.0,14.0,30,-99.99,,,-99.99,,2013-03-03 05:52:00,
2013-03-02 23:01:00,40.0,15.0,-100.00,South,184,4.0,10.0,35,-99.99,,,-99.99,,2013-03-03 06:01:00,
2013-03-02 23:11:00,40.0,14.0,-100.00,East,91,4.0,7.0,33,-99.99,,,-99.99,,2013-03-03 06:11:00,
2013-03-02 23:21:00,41.0,15.0,-100.00,East,93,4.0,7.0,32,-99.99,,,-99.99,,2013-03-03 06:21:00,
2013-03-02 23:31:00,42.0,14.0,-100.00,East,79,7.0,8.0,32,-99.99,,,-99.99,,2013-03-03 06:31:00,
2013-03-02 23:42:00,41.0,14.0,-100.00,East,93,7.0,9.0,32,-99.99,,,-99.99,,2013-03-03 06:42:00,
2013-03-02 23:52:00,42.0,14.0,-100.00,ESE,117,5.0,7.0,31,-99.99,,,-99.99,,2013-03-03 06:52:00,